Time;durP1;ratioP1;P1;durP2;ratioP2;P2;SDS_P1;SDS_P2;PMS_P1;PMS_P2;Temp;Humidity;BMP_temperature;BMP_pressure;BME280_temperature;BME280_humidity;BME280_pressure;Samples;Min_cycle;Max_cycle;Signal;HPM_P1;HPM_P2
2023/02/05 00:02:24;;;;;;;;;;;;;;;7.98;100.00;103633.94;5026972;28;19935;-64
2023/02/05 00:04:52;;;;;;;;;;;;;;;7.96;100.00;103620.09;5042950;28;19939;-65
2023/02/05 00:07:18;;;;;;;;;;;;;;;7.95;100.00;103626.22;5035075;28;20715;-64
2023/02/05 00:09:44;;;;;;;;;;;;;;;7.91;100.00;103616.78;5041056;28;19933;-64
2023/02/05 00:12:11;;;;;;;;;;;;;;;7.92;100.00;103615.88;5038384;28;20344;-64
2023/02/05 00:14:37;;;;;;;;;;;;;;;7.93;100.00;103610.56;5031850;28;19933;-63
2023/02/05 00:17:03;;;;;;;;;;;;;;;7.94;100.00;103608.84;5042020;28;19933;-64
2023/02/05 00:19:29;;;;;;;;;;;;;;;7.96;100.00;103604.41;5031006;28;20306;-63
2023/02/05 00:21:56;;;;;;;;;;;;;;;8.01;100.00;103599.81;5039945;28;19933;-64
2023/02/05 00:24:22;;;;;;;;;;;;;;;8.01;100.00;103580.69;5033418;28;20346;-63
2023/02/05 00:26:48;;;;;;;;;;;;;;;8.00;100.00;103579.00;5038604;28;19930;-64
2023/02/05 00:29:15;;;;;;;;;;;;;;;7.99;100.00;103570.28;5037787;28;19978;-63
2023/02/05 00:31:41;;;;;;;;;;;;;;;7.92;100.00;103572.31;5035710;28;20499;-63
2023/02/05 00:34:07;;;;;;;;;;;;;;;7.96;100.00;103575.66;5040983;28;19935;-64
2023/02/05 00:36:34;;;;;;;;;;;;;;;8.00;100.00;103584.22;5036674;28;19979;-64
2023/02/05 00:39:00;;;;;;;;;;;;;;;8.01;100.00;103578.06;5035836;28;19928;-64
2023/02/05 00:41:26;;;;;;;;;;;;;;;8.04;100.00;103584.03;5024065;28;19932;-64
2023/02/05 00:43:53;;;;;;;;;;;;;;;8.01;100.00;103572.84;5000264;28;19939;-64
2023/02/05 00:46:19;;;;;;;;;;;;;;;8.00;100.00;103561.53;5039864;28;19929;-64
2023/02/05 00:48:45;;;;;;;;;;;;;;;7.95;100.00;103544.34;5034560;28;19948;-64
2023/02/05 00:51:12;;;;;;;;;;;;;;;7.90;100.00;103550.59;5040517;28;20283;-64
2023/02/05 00:53:38;;;;;;;;;;;;;;;7.98;100.00;103554.66;5032954;28;19936;-64
2023/02/05 00:56:04;;;;;;;;;;;;;;;8.00;100.00;103551.09;5036001;28;20082;-64
2023/02/05 00:58:31;;;;;;;;;;;;;;;8.00;100.00;103561.53;5034393;28;19932;-64
2023/02/05 01:00:57;;;;;;;;;;;;;;;8.01;100.00;103563.22;5036895;28;20386;-64
2023/02/05 01:03:23;;;;;;;;;;;;;;;7.98;100.00;103568.59;5041493;28;19925;-64
2023/02/05 01:05:50;;;;;;;;;;;;;;;8.02;100.00;103561.47;5034694;28;20301;-64
2023/02/05 01:08:16;;;;;;;;;;;;;;;7.97;100.00;103559.03;5038356;28;19928;-64
2023/02/05 01:10:44;;;;;;;;;;;;;;;7.88;100.00;103549.81;5031419;28;19928;-64
2023/02/05 01:13:10;;;;;;;;;;;;;;;7.83;100.00;103549.16;5019642;28;19932;-64
2023/02/05 01:15:37;;;;;;;;;;;;;;;7.84;100.00;103545.63;5031185;28;20381;-64
2023/02/05 01:18:03;;;;;;;;;;;;;;;7.78;100.00;103553.72;5032270;28;19939;-64
2023/02/05 01:20:30;;;;;;;;;;;;;;;7.80;100.00;103562.34;5041616;28;20448;-64
2023/02/05 01:22:56;;;;;;;;;;;;;;;7.83;100.00;103562.22;5025416;28;19928;-64
2023/02/05 01:25:23;;;;;;;;;;;;;;;7.86;100.00;103564.72;5032729;28;19952;-64
2023/02/05 01:27:49;;;;;;;;;;;;;;;7.90;100.00;103575.91;5034447;28;19936;-64
2023/02/05 01:30:15;;;;;;;;;;;;;;;7.89;100.00;103574.19;5042610;28;20020;-64
2023/02/05 01:32:42;;;;;;;;;;;;;;;7.94;100.00;103577.47;5040937;28;19935;-64
2023/02/05 01:35:08;;;;;;;;;;;;;;;7.98;100.00;103571.22;5037016;28;19929;-64
2023/02/05 01:37:35;;;;;;;;;;;;;;;8.00;100.00;103576.38;5035098;28;19951;-64
2023/02/05 01:40:01;;;;;;;;;;;;;;;8.04;100.00;103572.72;5028248;28;20001;-64
2023/02/05 01:42:28;;;;;;;;;;;;;;;8.04;100.00;103576.19;5032231;28;20478;-64
2023/02/05 01:45:14;;;;;;;;;;;;;;;8.06;100.00;103568.28;5032441;28;19929;-64
2023/02/05 01:47:40;;;;;;;;;;;;;;;8.05;100.00;103563.94;5042207;28;19932;-63
2023/02/05 01:50:06;;;;;;;;;;;;;;;8.06;100.00;103570.91;5030153;28;19959;-63
2023/02/05 01:52:32;;;;;;;;;;;;;;;7.99;100.00;103574.66;5038234;28;19929;-64
2023/02/05 01:55:01;;;;;;;;;;;;;;;8.00;100.00;103577.22;5041328;28;19929;-64
2023/02/05 01:57:27;;;;;;;;;;;;;;;7.99;100.00;103580.72;5026857;28;19929;-64
2023/02/05 01:59:53;;;;;;;;;;;;;;;8.01;100.00;103585.91;5022508;28;19935;-64
2023/02/05 02:02:20;;;;;;;;;;;;;;;8.03;100.00;103579.69;5035294;28;19929;-64
2023/02/05 02:04:48;;;;;;;;;;;;;;;8.06;100.00;103579.59;5028084;28;20112;-64
2023/02/05 02:07:17;;;;;;;;;;;;;;;8.06;100.00;103565.66;5029407;28;19929;-64
2023/02/05 02:09:46;;;;;;;;;;;;;;;8.04;100.00;103567.50;5041744;28;19932;-64
2023/02/05 02:12:14;;;;;;;;;;;;;;;8.04;100.00;103557.03;5041361;28;19932;-64
2023/02/05 02:14:43;;;;;;;;;;;;;;;8.05;100.00;103554.34;5030272;28;19929;-64
2023/02/05 02:17:10;;;;;;;;;;;;;;;8.07;100.00;103568.19;5036804;28;19935;-63
2023/02/05 02:19:47;;;;;;;;;;;;;;;8.06;100.00;103557.81;5030039;28;19928;-64
2023/02/05 02:22:38;;;;;;;;;;;;;;;8.10;100.00;103543.72;5035556;28;19932;-64
2023/02/05 02:25:23;;;;;;;;;;;;;;;8.06;100.00;103543.00;5033336;28;19928;-64
2023/02/05 02:28:12;;;;;;;;;;;;;;;8.07;100.00;103536.81;5047640;28;19929;-63
2023/02/05 02:30:41;;;;;;;;;;;;;;;8.03;100.00;103526.56;4994803;28;20404;-64
2023/02/05 02:33:07;;;;;;;;;;;;;;;8.02;100.00;103522.28;5038513;28;20245;-63
2023/02/05 02:35:50;;;;;;;;;;;;;;;8.04;100.00;103523.91;5047330;28;19929;-64
2023/02/05 02:38:38;;;;;;;;;;;;;;;7.95;100.00;103528.66;5040062;28;19929;-64
2023/02/05 02:41:09;;;;;;;;;;;;;;;7.98;100.00;103526.78;5043917;28;20063;-64
2023/02/05 02:43:55;;;;;;;;;;;;;;;7.96;100.00;103518.16;5032601;28;19979;-63
2023/02/05 02:46:28;;;;;;;;;;;;;;;7.92;100.00;103529.66;5036406;28;19933;-64
2023/02/05 02:48:56;;;;;;;;;;;;;;;7.93;100.00;103521.72;5037899;28;19929;-64
2023/02/05 02:51:25;;;;;;;;;;;;;;;8.02;100.00;103528.34;5041381;28;19925;-63
2023/02/05 02:53:54;;;;;;;;;;;;;;;8.04;100.00;103533.53;5034422;28;20008;-64
2023/02/05 02:56:21;;;;;;;;;;;;;;;8.07;100.00;103530.75;5043102;28;20381;-64
2023/02/05 02:58:50;;;;;;;;;;;;;;;8.02;100.00;103523.13;5033379;28;19960;-63
2023/02/05 03:01:18;;;;;;;;;;;;;;;8.06;100.00;103516.84;5036962;28;20694;-63
2023/02/05 03:03:48;;;;;;;;;;;;;;;8.02;100.00;103519.66;5047221;28;20748;-63
2023/02/05 03:06:15;;;;;;;;;;;;;;;7.99;100.00;103506.69;5037887;28;19929;-64
2023/02/05 03:09:14;;;;;;;;;;;;;;;7.97;100.00;103493.69;5043697;28;19956;-64
2023/02/05 03:11:40;;;;;;;;;;;;;;;7.99;100.00;103494.47;4985963;28;19929;-63
2023/02/05 03:14:06;;;;;;;;;;;;;;;8.00;100.00;103496.19;5043132;28;20481;-64
2023/02/05 03:16:33;;;;;;;;;;;;;;;8.01;100.00;103492.66;5030727;28;19924;-64
2023/02/05 03:19:01;;;;;;;;;;;;;;;8.01;100.00;103492.66;5044389;28;19983;-63
2023/02/05 03:21:31;;;;;;;;;;;;;;;7.96;100.00;103492.00;5045669;28;19928;-64
2023/02/05 03:23:58;;;;;;;;;;;;;;;7.95;100.00;103510.34;5040550;28;19929;-64
2023/02/05 03:26:25;;;;;;;;;;;;;;;7.92;100.00;103506.13;5049554;28;19933;-63
2023/02/05 03:28:51;;;;;;;;;;;;;;;7.97;100.00;103501.53;5020075;28;19971;-65
2023/02/05 03:31:20;;;;;;;;;;;;;;;8.00;100.00;103506.66;5046241;28;19928;-63
2023/02/05 03:33:54;;;;;;;;;;;;;;;8.00;100.00;103517.09;5036752;28;19952;-64
2023/02/05 03:36:39;;;;;;;;;;;;;;;8.02;100.00;103524.88;5043786;28;20382;-64
2023/02/05 03:39:24;;;;;;;;;;;;;;;8.03;100.00;103531.81;5037098;28;19929;-64
2023/02/05 03:42:07;;;;;;;;;;;;;;;8.03;100.00;103537.88;5027459;28;19929;-64
2023/02/05 03:44:56;;;;;;;;;;;;;;;8.05;100.00;103540.44;5039951;28;19928;-64
2023/02/05 03:47:35;;;;;;;;;;;;;;;7.96;100.00;103527.72;5002895;28;19924;-63
2023/02/05 03:50:09;;;;;;;;;;;;;;;7.96;100.00;103525.13;5042952;28;19928;-64
2023/02/05 03:52:40;;;;;;;;;;;;;;;7.96;100.00;103526.00;5037150;28;19994;-64
2023/02/05 03:55:26;;;;;;;;;;;;;;;7.92;100.00;103516.56;5036890;28;19969;-64
2023/02/05 03:57:56;;;;;;;;;;;;;;;7.90;100.00;103514.00;5033185;28;19978;-64
2023/02/05 04:00:23;;;;;;;;;;;;;;;7.96;100.00;103512.03;5043981;28;19929;-64
2023/02/05 04:02:50;;;;;;;;;;;;;;;7.96;100.00;103514.66;5037012;28;20019;-64
2023/02/05 04:05:16;;;;;;;;;;;;;;;7.92;100.00;103514.81;5039747;28;19936;-64
2023/02/05 04:07:42;;;;;;;;;;;;;;;7.94;100.00;103519.97;5034189;28;19936;-65
2023/02/05 04:10:09;;;;;;;;;;;;;;;7.93;100.00;103515.66;5040174;28;20420;-64
2023/02/05 04:12:35;;;;;;;;;;;;;;;7.92;100.00;103525.25;5039672;28;19925;-64
2023/02/05 04:15:02;;;;;;;;;;;;;;;7.89;100.00;103514.06;5037436;28;19969;-64
2023/02/05 04:17:28;;;;;;;;;;;;;;;7.95;100.00;103515.59;5042319;28;19932;-64
2023/02/05 04:19:54;;;;;;;;;;;;;;;7.92;100.00;103521.81;5032370;28;19928;-64
2023/02/05 04:22:21;;;;;;;;;;;;;;;7.90;100.00;103513.19;5038150;28;20036;-63
2023/02/05 04:24:47;;;;;;;;;;;;;;;7.88;100.00;103512.38;5044278;28;20305;-64
2023/02/05 04:27:13;;;;;;;;;;;;;;;7.89;100.00;103514.91;5034735;28;20281;-64
2023/02/05 04:29:40;;;;;;;;;;;;;;;7.93;100.00;103502.56;5043893;28;19925;-64
2023/02/05 04:32:06;;;;;;;;;;;;;;;7.90;100.00;103508.78;5035346;28;19994;-64
2023/02/05 04:34:32;;;;;;;;;;;;;;;7.92;100.00;103501.72;5033889;28;20162;-64
2023/02/05 04:36:59;;;;;;;;;;;;;;;7.85;100.00;103496.81;5034729;28;19928;-64
2023/02/05 04:39:25;;;;;;;;;;;;;;;7.89;100.00;103508.84;5043453;28;20461;-64
2023/02/05 04:41:51;;;;;;;;;;;;;;;7.87;100.00;103508.06;5041060;28;20381;-64
2023/02/05 04:44:18;;;;;;;;;;;;;;;7.85;100.00;103507.28;5036313;28;19935;-64
2023/02/05 04:46:44;;;;;;;;;;;;;;;7.77;100.00;103507.59;5037278;28;20113;-63
2023/02/05 04:49:10;;;;;;;;;;;;;;;7.78;100.00;103508.44;5032026;28;19929;-63
2023/02/05 04:51:37;;;;;;;;;;;;;;;7.79;100.00;103508.38;5041547;28;19933;-64
2023/02/05 04:54:03;;;;;;;;;;;;;;;7.77;100.00;103507.59;5033508;28;20062;-64
2023/02/05 04:56:29;;;;;;;;;;;;;;;7.75;100.00;103511.19;5039543;28;19929;-64
2023/02/05 04:58:56;;;;;;;;;;;;;;;7.73;100.00;103506.84;5043696;28;19948;-63
2023/02/05 05:01:22;;;;;;;;;;;;;;;7.67;100.00;103499.25;5029375;28;19971;-63
2023/02/05 05:03:49;;;;;;;;;;;;;;;7.72;100.00;103509.53;5036960;28;19978;-64
2023/02/05 05:06:16;;;;;;;;;;;;;;;7.69;100.00;103507.88;5033720;28;19944;-64
2023/02/05 05:08:43;;;;;;;;;;;;;;;7.68;100.00;103511.44;5041839;28;19971;-64
2023/02/05 05:11:11;;;;;;;;;;;;;;;7.64;100.00;103519.44;5026237;28;19928;-63
2023/02/05 05:13:38;;;;;;;;;;;;;;;7.61;100.00;103511.72;5040154;28;19936;-64
2023/02/05 05:16:05;;;;;;;;;;;;;;;7.55;100.00;103515.44;5031181;28;20393;-64
2023/02/05 05:18:31;;;;;;;;;;;;;;;7.56;100.00;103516.28;5017658;28;20301;-63
2023/02/05 05:20:57;;;;;;;;;;;;;;;7.59;100.00;103506.56;5037487;28;19933;-64
2023/02/05 05:23:24;;;;;;;;;;;;;;;7.56;100.00;103514.50;5036174;28;19928;-63
2023/02/05 05:25:50;;;;;;;;;;;;;;;7.56;100.00;103509.28;5041832;28;20356;-64
2023/02/05 05:28:17;;;;;;;;;;;;;;;7.58;100.00;103510.06;5007811;28;19925;-64
2023/02/05 05:30:44;;;;;;;;;;;;;;;7.52;100.00;103510.31;5037120;28;19933;-63
2023/02/05 05:33:11;;;;;;;;;;;;;;;7.55;100.00;103509.34;5033805;28;20527;-63
2023/02/05 05:35:37;;;;;;;;;;;;;;;7.50;100.00;103507.75;5014265;28;20443;-63
2023/02/05 05:38:04;;;;;;;;;;;;;;;7.44;100.00;103504.56;5034311;28;19925;-63
2023/02/05 05:46:02;;;;;;;;;;;;;;;7.45;100.00;103507.13;5025298;28;19939;-64
2023/02/05 05:48:29;;;;;;;;;;;;;;;7.45;100.00;103501.03;5037039;28;19929;-63
2023/02/05 05:50:55;;;;;;;;;;;;;;;7.43;100.00;103487.16;5033778;28;19932;-63
2023/02/05 05:53:21;;;;;;;;;;;;;;;7.43;100.00;103480.22;5038552;28;20004;-63
2023/02/05 05:55:48;;;;;;;;;;;;;;;7.26;100.00;103475.63;5034754;28;19932;-63
2023/02/05 05:58:14;;;;;;;;;;;;;;;7.36;100.00;103486.56;5022066;28;19929;-64
2023/02/05 06:00:41;;;;;;;;;;;;;;;7.39;100.00;103483.84;5041316;28;19929;-63
2023/02/05 06:03:10;;;;;;;;;;;;;;;7.38;100.00;103487.38;5034030;28;19940;-63
2023/02/05 06:05:37;;;;;;;;;;;;;;;7.38;100.00;103484.75;5021082;28;19977;-64
2023/02/05 06:08:04;;;;;;;;;;;;;;;7.39;100.00;103478.63;5033672;28;19935;-64
2023/02/05 06:10:31;;;;;;;;;;;;;;;7.42;100.00;103480.25;5030095;28;19932;-63
2023/02/05 06:12:59;;;;;;;;;;;;;;;7.43;100.00;103474.97;5037921;28;19929;-63
2023/02/05 06:15:28;;;;;;;;;;;;;;;7.40;100.00;103469.03;5034946;28;20036;-63
2023/02/05 06:17:54;;;;;;;;;;;;;;;7.43;100.00;103474.09;5034786;28;19925;-63
2023/02/05 06:20:21;;;;;;;;;;;;;;;7.37;100.00;103456.94;5033437;28;19971;-65
2023/02/05 06:22:47;;;;;;;;;;;;;;;7.39;100.00;103462.09;5035766;28;20223;-64
2023/02/05 06:25:14;;;;;;;;;;;;;;;7.42;100.00;103464.59;5026545;28;19929;-64
2023/02/05 06:27:41;;;;;;;;;;;;;;;7.43;100.00;103482.81;5034993;28;19928;-63
2023/02/05 06:30:07;;;;;;;;;;;;;;;7.40;100.00;103488.16;5037770;28;19929;-64
2023/02/05 06:32:34;;;;;;;;;;;;;;;7.33;100.00;103500.59;5034670;28;19940;-64
2023/02/05 06:35:00;;;;;;;;;;;;;;;7.18;100.00;103490.75;5037950;28;19954;-64
2023/02/05 06:37:28;;;;;;;;;;;;;;;7.11;100.00;103494.50;5030563;28;19986;-63
2023/02/05 06:40:14;;;;;;;;;;;;;;;7.04;100.00;103517.38;5030224;28;19928;-65
2023/02/05 06:42:40;;;;;;;;;;;;;;;7.03;100.00;103514.81;5035097;28;19928;-63
2023/02/05 06:45:07;;;;;;;;;;;;;;;6.99;100.00;103527.13;5040224;28;20386;-69
2023/02/05 06:47:33;;;;;;;;;;;;;;;7.03;100.00;103526.09;5039715;28;19925;-64
2023/02/05 06:50:00;;;;;;;;;;;;;;;6.90;100.00;103550.97;5032417;28;20441;-64
2023/02/05 06:52:26;;;;;;;;;;;;;;;6.90;100.00;103549.19;5034561;28;19932;-64
2023/02/05 06:54:52;;;;;;;;;;;;;;;6.87;100.00;103535.41;5031252;28;19937;-64
2023/02/05 06:57:18;;;;;;;;;;;;;;;6.74;100.00;103555.84;5040494;28;19925;-64
2023/02/05 06:59:45;;;;;;;;;;;;;;;6.67;100.00;103551.78;5034542;28;19933;-64
2023/02/05 07:02:12;;;;;;;;;;;;;;;6.71;100.00;103569.88;5036425;28;19928;-64
2023/02/05 07:04:38;;;;;;;;;;;;;;;6.64;100.00;103570.13;5034751;28;19933;-66
2023/02/05 07:07:05;;;;;;;;;;;;;;;6.65;100.00;103577.91;5028412;28;19932;-65
2023/02/05 07:09:31;;;;;;;;;;;;;;;6.60;100.00;103587.63;5036322;28;20309;-65
2023/02/05 07:11:58;;;;;;;;;;;;;;;6.62;100.00;103587.59;5032844;28;20270;-65
2023/02/05 07:14:24;;;;;;;;;;;;;;;6.62;100.00;103600.63;5044035;28;20233;-65
2023/02/05 07:16:51;;;;;;;;;;;;;;;6.54;100.00;103606.09;5037087;28;20015;-65
2023/02/05 07:19:17;;;;;;;;;;;;;;;6.60;100.00;103602.44;5034821;28;19956;-65
2023/02/05 07:21:44;;;;;;;;;;;;;;;6.60;100.00;103613.72;5038344;28;19952;-65
2023/02/05 07:24:10;;;;;;;;;;;;;;;6.59;100.00;103616.41;5014448;28;19925;-65
2023/02/05 07:26:37;;;;;;;;;;;;;;;6.55;100.00;103626.09;5038214;28;20272;-65
2023/02/05 07:29:04;;;;;;;;;;;;;;;6.51;100.00;103625.31;5031625;28;19929;-65
2023/02/05 07:31:30;;;;;;;;;;;;;;;6.50;100.00;103636.66;5020855;28;20129;-65
2023/02/05 07:33:57;;;;;;;;;;;;;;;6.53;100.00;103640.94;5035913;28;20465;-65
2023/02/05 07:36:23;;;;;;;;;;;;;;;6.61;100.00;103645.91;5033522;28;19929;-66
2023/02/05 07:38:49;;;;;;;;;;;;;;;6.64;100.00;103641.41;5025897;28;20708;-65
2023/02/05 07:41:16;;;;;;;;;;;;;;;6.67;100.00;103643.91;5032654;28;19982;-66
2023/02/05 07:43:49;;;;;;;;;;;;;;;6.67;100.00;103646.53;5042731;28;20388;-65
2023/02/05 07:46:15;;;;;;;;;;;;;;;6.70;100.00;103654.25;5036624;28;19929;-65
2023/02/05 07:48:44;;;;;;;;;;;;;;;6.65;100.00;103655.31;5036747;28;19929;-64
2023/02/05 07:51:29;;;;;;;;;;;;;;;6.61;100.00;103671.97;5032553;28;19933;-65
2023/02/05 07:53:55;;;;;;;;;;;;;;;6.58;100.00;103661.63;5038269;28;19929;-65
2023/02/05 07:56:24;;;;;;;;;;;;;;;6.59;100.00;103666.81;5043316;28;19929;-65
2023/02/05 07:58:51;;;;;;;;;;;;;;;6.59;100.00;103664.19;5036261;28;20487;-65
2023/02/05 08:01:17;;;;;;;;;;;;;;;6.63;100.00;103678.84;5036256;28;19929;-65
2023/02/05 08:03:43;;;;;;;;;;;;;;;6.67;100.00;103672.63;5026229;28;19928;-65
2023/02/05 08:06:13;;;;;;;;;;;;;;;6.67;100.00;103670.00;5032620;28;19925;-65
2023/02/05 08:08:39;;;;;;;;;;;;;;;6.70;100.00;103675.13;5036044;28;19928;-64
2023/02/05 08:11:12;;;;;;;;;;;;;;;6.70;100.00;103682.97;5042516;28;20134;-64
2023/02/05 08:13:39;;;;;;;;;;;;;;;6.71;100.00;103684.66;5043082;28;20382;-64
2023/02/05 08:16:05;;;;;;;;;;;;;;;6.70;100.00;103675.13;5029748;28;19935;-65
2023/02/05 08:18:32;;;;;;;;;;;;;;;6.66;100.00;103681.34;5037440;28;19928;-65
2023/02/05 08:20:59;;;;;;;;;;;;;;;6.63;100.00;103678.84;5033363;28;19933;-65
2023/02/05 08:23:25;;;;;;;;;;;;;;;6.69;100.00;103683.00;5039474;28;19928;-65
2023/02/05 08:25:56;;;;;;;;;;;;;;;6.75;100.00;103681.94;5034435;28;19960;-65
2023/02/05 08:28:23;;;;;;;;;;;;;;;6.75;100.00;103680.19;5040706;28;19936;-65
2023/02/05 08:30:49;;;;;;;;;;;;;;;6.73;100.00;103682.00;5043274;28;20392;-65
2023/02/05 08:33:16;;;;;;;;;;;;;;;6.76;100.00;103679.25;5031393;28;19960;-64
2023/02/05 08:35:42;;;;;;;;;;;;;;;6.68;100.00;103681.28;5038389;28;19929;-65
2023/02/05 08:38:09;;;;;;;;;;;;;;;6.64;100.00;103683.13;5029738;28;19970;-65
2023/02/05 08:40:35;;;;;;;;;;;;;;;6.68;100.00;103687.38;5029923;28;19929;-65
2023/02/05 08:43:02;;;;;;;;;;;;;;;6.64;100.00;103684.91;5035219;28;20417;-65
2023/02/05 08:45:29;;;;;;;;;;;;;;;6.68;100.00;103689.97;5040271;28;20248;-64
2023/02/05 08:47:55;;;;;;;;;;;;;;;6.65;100.00;103704.88;5041510;28;19933;-64
2023/02/05 08:50:21;;;;;;;;;;;;;;;6.64;100.00;103701.41;5035516;28;19929;-64
2023/02/05 08:52:48;;;;;;;;;;;;;;;6.63;100.00;103696.25;5031274;28;19929;-65
2023/02/05 08:55:17;;;;;;;;;;;;;;;6.58;100.00;103703.38;5027657;28;19928;-65
2023/02/05 08:57:43;;;;;;;;;;;;;;;6.57;100.00;103717.31;5039729;28;19928;-64
2023/02/05 09:00:10;;;;;;;;;;;;;;;6.49;100.00;103714.97;5034905;28;19928;-65
2023/02/05 09:02:36;;;;;;;;;;;;;;;6.55;100.00;103709.53;5039999;28;19928;-64
2023/02/05 09:05:02;;;;;;;;;;;;;;;6.61;100.00;103700.66;5039450;28;19928;-64
2023/02/05 09:07:35;;;;;;;;;;;;;;;6.60;100.00;103712.00;5031185;28;20298;-64
2023/02/05 09:10:02;;;;;;;;;;;;;;;6.64;100.00;103710.97;5036583;28;20610;-65
2023/02/05 09:12:28;;;;;;;;;;;;;;;6.62;100.00;103705.81;5034799;28;19936;-65
2023/02/05 09:14:54;;;;;;;;;;;;;;;6.74;100.00;103715.00;5040853;28;19928;-64
2023/02/05 09:17:21;;;;;;;;;;;;;;;6.75;100.00;103716.72;5036165;28;20436;-65
2023/02/05 09:19:47;;;;;;;;;;;;;;;6.78;100.00;103719.19;5031344;28;19959;-65
2023/02/05 09:22:13;;;;;;;;;;;;;;;6.83;100.00;103730.34;5034890;28;20112;-65
2023/02/05 09:24:40;;;;;;;;;;;;;;;6.88;100.00;103717.13;5027289;28;19951;-65
2023/02/05 09:27:06;;;;;;;;;;;;;;;6.92;100.00;103724.00;5040494;28;20126;-65
2023/02/05 09:29:32;;;;;;;;;;;;;;;7.01;100.00;103720.22;5035370;28;19929;-65
2023/02/05 09:31:59;;;;;;;;;;;;;;;7.02;100.00;103720.16;5022264;28;19939;-65
2023/02/05 09:34:25;;;;;;;;;;;;;;;7.08;100.00;103717.34;5033577;28;19928;-65
2023/02/05 09:36:52;;;;;;;;;;;;;;;7.11;100.00;103706.81;5026676;28;20322;-65
2023/02/05 09:39:18;;;;;;;;;;;;;;;7.12;100.00;103711.09;5031201;28;19929;-65
2023/02/05 09:42:04;;;;;;;;;;;;;;;7.13;100.00;103715.44;5026774;28;19929;-65
2023/02/05 09:44:36;;;;;;;;;;;;;;;7.17;100.00;103717.91;5041677;28;20132;-65
2023/02/05 09:47:15;;;;;;;;;;;;;;;7.12;100.00;103712.88;5032520;28;19933;-65
2023/02/05 09:49:48;;;;;;;;;;;;;;;7.18;100.00;103714.41;5033602;28;19929;-65
2023/02/05 09:52:26;;;;;;;;;;;;;;;7.17;100.00;103705.72;5028636;28;19928;-65
2023/02/05 09:55:15;;;;;;;;;;;;;;;7.15;100.00;103702.31;5040385;28;19929;-65
2023/02/05 09:57:42;;;;;;;;;;;;;;;7.20;100.00;103721.28;5020111;28;19939;-65
2023/02/05 10:00:15;;;;;;;;;;;;;;;7.21;100.00;103711.69;5037352;28;20411;-65
2023/02/05 10:03:00;;;;;;;;;;;;;;;7.23;100.00;103702.91;5037065;28;19976;-65
2023/02/05 10:05:31;;;;;;;;;;;;;;;7.27;100.00;103717.56;5016939;28;20008;-65
2023/02/05 10:08:16;;;;;;;;;;;;;;;7.26;100.00;103725.44;5037298;28;20041;-65
2023/02/05 10:10:44;;;;;;;;;;;;;;;7.35;100.00;103753.84;5033275;28;19929;-66
2023/02/05 10:13:29;;;;;;;;;;;;;;;7.36;100.00;103724.19;5029131;28;19929;-65
2023/02/05 10:16:02;;;;;;;;;;;;;;;7.44;100.00;103723.94;5031350;28;19929;-65
2023/02/05 10:18:47;;;;;;;;;;;;;;;7.46;100.00;103715.13;5036796;28;20012;-65
2023/02/05 10:21:52;;;;;;;;;;;;;;;7.51;100.00;103715.81;5027947;28;20014;-65
2023/02/05 10:24:28;;;;;;;;;;;;;;;7.59;100.00;103696.41;4987626;28;19992;-65
2023/02/05 10:27:00;;;;;;;;;;;;;;;7.58;100.00;103710.38;4972294;28;19936;-66
2023/02/05 10:29:34;;;;;;;;;;;;;;;7.60;100.00;103708.56;5015424;28;20397;-66
2023/02/05 10:32:00;;;;;;;;;;;;;;;7.62;100.00;103710.19;5020760;28;19929;-66
2023/02/05 10:34:42;;;;;;;;;;;;;;;7.68;100.00;103728.28;5036804;28;19951;-65
2023/02/05 10:37:14;;;;;;;;;;;;;;;7.70;100.00;103728.19;5037054;28;20396;-66
2023/02/05 10:39:41;;;;;;;;;;;;;;;7.82;100.00;103727.78;5032592;28;19924;-66
2023/02/05 10:42:16;;;;;;;;;;;;;;;7.87;100.00;103733.66;5035220;28;19940;-66
2023/02/05 10:44:43;;;;;;;;;;;;;;;7.89;100.00;103738.84;5027374;28;19935;-66
2023/02/05 10:47:20;;;;;;;;;;;;;;;7.83;100.00;103732.06;5041678;28;20313;-66
2023/02/05 10:49:50;;;;;;;;;;;;;;;7.86;100.00;103737.19;5037372;28;19956;-66
2023/02/05 10:52:16;;;;;;;;;;;;;;;7.78;100.00;103752.31;5043763;28;20503;-66
2023/02/05 10:54:44;;;;;;;;;;;;;;;7.76;100.00;103750.66;5038552;28;20270;-66
2023/02/05 10:57:12;;;;;;;;;;;;;;;7.76;100.00;103759.34;5025825;28;20591;-66
2023/02/05 10:59:44;;;;;;;;;;;;;;;7.79;100.00;103771.47;5037362;28;20324;-66
2023/02/05 11:02:11;;;;;;;;;;;;;;;7.78;100.00;103762.78;5032851;28;20423;-66
2023/02/05 11:04:40;;;;;;;;;;;;;;;7.80;100.00;103758.34;5042956;28;19959;-65
2023/02/05 11:07:12;;;;;;;;;;;;;;;7.77;100.00;103760.22;5033334;28;19943;-65
2023/02/05 11:09:38;;;;;;;;;;;;;;;7.85;100.00;103752.94;5037446;28;19937;-66
2023/02/05 11:12:14;;;;;;;;;;;;;;;7.88;100.00;103747.59;5041263;28;20409;-65
2023/02/05 11:14:43;;;;;;;;;;;;;;;7.95;100.00;103761.28;5044448;28;19929;-64
2023/02/05 11:17:15;;;;;;;;;;;;;;;7.94;100.00;103749.97;5043230;28;20393;-66
2023/02/05 11:19:55;;;;;;;;;;;;;;;8.07;100.00;103759.03;5034415;28;19929;-65
2023/02/05 11:22:26;;;;;;;;;;;;;;;8.16;100.00;103755.25;5032439;28;20406;-65
2023/02/05 11:25:03;;;;;;;;;;;;;;;8.29;100.00;103753.88;5032268;28;20408;-66
2023/02/05 11:27:31;;;;;;;;;;;;;;;8.38;100.00;103762.25;5037747;28;19987;-66
2023/02/05 11:30:15;;;;;;;;;;;;;;;8.35;100.00;103765.88;5032179;28;19978;-66
2023/02/05 11:32:43;;;;;;;;;;;;;;;8.36;100.00;103778.00;5042931;28;20742;-66
2023/02/05 11:35:18;;;;;;;;;;;;;;;8.42;100.00;103767.34;5037388;28;19936;-66
2023/02/05 11:37:45;;;;;;;;;;;;;;;8.41;100.00;103768.25;5035777;28;19929;-65
2023/02/05 11:40:23;;;;;;;;;;;;;;;8.45;100.00;103772.47;5037659;28;20059;-66
2023/02/05 11:42:55;;;;;;;;;;;;;;;8.51;100.00;103758.28;5029367;28;20366;-66
2023/02/05 11:45:24;;;;;;;;;;;;;;;8.52;100.00;103752.97;5036502;28;19936;-66
2023/02/05 11:47:50;;;;;;;;;;;;;;;8.60;100.00;103744.81;5036670;28;19929;-66
2023/02/05 11:50:26;;;;;;;;;;;;;;;8.66;100.00;103741.97;5035515;28;20002;-66
2023/02/05 11:52:54;;;;;;;;;;;;;;;8.61;100.00;103743.06;5022065;28;19929;-66
2023/02/05 11:55:28;;;;;;;;;;;;;;;8.64;100.00;103748.16;5036153;28;20419;-65
2023/02/05 11:57:59;;;;;;;;;;;;;;;8.69;100.00;103739.22;5037252;28;19929;-65
2023/02/05 12:00:26;;;;;;;;;;;;;;;8.64;100.00;103748.16;5026350;28;20456;-65
2023/02/05 12:03:12;;;;;;;;;;;;;;;8.70;100.00;103766.22;5040354;28;20459;-65
2023/02/05 12:05:43;;;;;;;;;;;;;;;8.60;100.00;103752.66;5017716;28;19925;-65
2023/02/05 12:08:12;;;;;;;;;;;;;;;8.67;100.00;103766.38;5042899;28;20320;-65
2023/02/05 12:10:50;;;;;;;;;;;;;;;8.66;100.00;103764.66;5036155;28;19982;-65
2023/02/05 12:13:24;;;;;;;;;;;;;;;8.60;100.00;103773.59;5037164;28;19933;-65
2023/02/05 12:16:00;;;;;;;;;;;;;;;8.59;100.00;103769.28;5013848;28;20377;-65
2023/02/05 12:18:26;;;;;;;;;;;;;;;8.57;100.00;103773.75;5028274;28;20024;-65
2023/02/05 12:21:11;;;;;;;;;;;;;;;8.62;100.00;103776.16;5035296;28;19935;-65
2023/02/05 12:23:47;;;;;;;;;;;;;;;8.66;100.00;103762.91;5025696;28;19928;-66
2023/02/05 12:26:22;;;;;;;;;;;;;;;8.70;100.00;103764.50;5038153;28;19928;-65
2023/02/05 12:29:05;;;;;;;;;;;;;;;8.86;100.00;103761.22;5029778;28;19934;-65
2023/02/05 12:31:32;;;;;;;;;;;;;;;9.02;100.00;103770.16;5029906;28;19924;-66
2023/02/05 12:34:02;;;;;;;;;;;;;;;9.12;100.00;103767.16;5027826;28;19983;-66
2023/02/05 12:36:44;;;;;;;;;;;;;;;9.28;100.00;103776.06;5038360;28;19982;-65
2023/02/05 12:39:29;;;;;;;;;;;;;;;9.45;100.00;103770.94;5031428;28;19928;-65
2023/02/05 12:42:04;;;;;;;;;;;;;;;9.50;100.00;103771.59;5041084;28;19928;-65
2023/02/05 12:44:37;;;;;;;;;;;;;;;9.48;100.00;103770.81;5031767;28;19951;-66
2023/02/05 12:47:12;;;;;;;;;;;;;;;9.43;100.00;103769.31;5035862;28;19939;-65
2023/02/05 12:49:48;;;;;;;;;;;;;;;9.36;100.00;103775.75;5038080;28;19931;-65
2023/02/05 12:52:24;;;;;;;;;;;;;;;9.28;100.00;103786.53;5028093;28;19987;-65
2023/02/05 12:54:54;;;;;;;;;;;;;;;9.24;100.00;103793.69;5039574;28;19963;-66